sensor_id;sensor_type;location;lat;lon;timestamp;temperature;humidity
59660;DHT22;45534;52.690;6.268;2023-07-16T00:01:20;17.40;99.90
59660;DHT22;45534;52.690;6.268;2023-07-16T00:03:45;17.40;99.90
59660;DHT22;45534;52.690;6.268;2023-07-16T00:06:11;17.40;99.90
59660;DHT22;45534;52.690;6.268;2023-07-16T00:08:37;17.40;99.90
59660;DHT22;45534;52.690;6.268;2023-07-16T00:11:03;17.50;99.90
59660;DHT22;45534;52.690;6.268;2023-07-16T00:13:29;17.50;99.90
59660;DHT22;45534;52.690;6.268;2023-07-16T00:15:55;17.40;99.90
59660;DHT22;45534;52.690;6.268;2023-07-16T00:18:21;17.50;99.90
59660;DHT22;45534;52.690;6.268;2023-07-16T00:20:46;17.40;99.90
59660;DHT22;45534;52.690;6.268;2023-07-16T00:23:12;17.40;99.90
59660;DHT22;45534;52.690;6.268;2023-07-16T00:25:38;17.40;99.90
59660;DHT22;45534;52.690;6.268;2023-07-16T00:28:03;17.40;99.90
59660;DHT22;45534;52.690;6.268;2023-07-16T00:30:29;17.30;99.90
59660;DHT22;45534;52.690;6.268;2023-07-16T00:32:55;17.20;99.90
59660;DHT22;45534;52.690;6.268;2023-07-16T00:35:20;17.20;99.90
59660;DHT22;45534;52.690;6.268;2023-07-16T00:37:46;17.10;99.90
59660;DHT22;45534;52.690;6.268;2023-07-16T00:40:12;17.00;99.90
59660;DHT22;45534;52.690;6.268;2023-07-16T00:42:37;17.00;99.90
59660;DHT22;45534;52.690;6.268;2023-07-16T00:45:09;16.90;99.90
59660;DHT22;45534;52.690;6.268;2023-07-16T00:47:40;16.90;99.90
59660;DHT22;45534;52.690;6.268;2023-07-16T00:50:07;16.90;99.90
59660;DHT22;45534;52.690;6.268;2023-07-16T00:52:33;16.90;99.90
59660;DHT22;45534;52.690;6.268;2023-07-16T00:55:02;16.90;99.90
59660;DHT22;45534;52.690;6.268;2023-07-16T00:57:29;16.90;99.90
59660;DHT22;45534;52.690;6.268;2023-07-16T00:59:54;16.90;99.90
59660;DHT22;45534;52.690;6.268;2023-07-16T01:02:20;16.90;99.90
59660;DHT22;45534;52.690;6.268;2023-07-16T01:04:46;16.90;99.90
59660;DHT22;45534;52.690;6.268;2023-07-16T01:07:14;16.90;99.90
59660;DHT22;45534;52.690;6.268;2023-07-16T01:09:42;16.90;99.90
59660;DHT22;45534;52.690;6.268;2023-07-16T01:12:09;16.90;99.90
59660;DHT22;45534;52.690;6.268;2023-07-16T01:14:35;17.00;99.90
59660;DHT22;45534;52.690;6.268;2023-07-16T01:17:05;17.00;99.90
59660;DHT22;45534;52.690;6.268;2023-07-16T01:19:34;17.00;99.90
59660;DHT22;45534;52.690;6.268;2023-07-16T01:22:35;17.10;99.90
59660;DHT22;45534;52.690;6.268;2023-07-16T01:30:15;17.10;99.90
59660;DHT22;45534;52.690;6.268;2023-07-16T01:32:42;17.10;99.90
59660;DHT22;45534;52.690;6.268;2023-07-16T01:35:08;17.10;99.90
59660;DHT22;45534;52.690;6.268;2023-07-16T01:37:34;17.10;99.90
59660;DHT22;45534;52.690;6.268;2023-07-16T01:40:01;17.10;99.90
59660;DHT22;45534;52.690;6.268;2023-07-16T01:42:27;17.20;99.90
59660;DHT22;45534;52.690;6.268;2023-07-16T01:44:53;17.20;99.90
59660;DHT22;45534;52.690;6.268;2023-07-16T01:47:40;17.20;99.90
59660;DHT22;45534;52.690;6.268;2023-07-16T01:50:10;17.30;99.90
59660;DHT22;45534;52.690;6.268;2023-07-16T01:52:35;17.30;99.90
59660;DHT22;45534;52.690;6.268;2023-07-16T01:55:01;17.30;99.90
59660;DHT22;45534;52.690;6.268;2023-07-16T01:57:27;17.30;99.90
59660;DHT22;45534;52.690;6.268;2023-07-16T01:59:52;17.30;99.90
59660;DHT22;45534;52.690;6.268;2023-07-16T02:02:18;17.30;99.90
59660;DHT22;45534;52.690;6.268;2023-07-16T02:04:44;17.30;99.90
59660;DHT22;45534;52.690;6.268;2023-07-16T02:07:09;17.40;99.90
59660;DHT22;45534;52.690;6.268;2023-07-16T02:09:35;17.30;99.90
59660;DHT22;45534;52.690;6.268;2023-07-16T02:12:00;17.20;99.90
59660;DHT22;45534;52.690;6.268;2023-07-16T02:14:26;17.20;99.90
59660;DHT22;45534;52.690;6.268;2023-07-16T02:16:52;17.20;99.90
59660;DHT22;45534;52.690;6.268;2023-07-16T02:19:17;17.20;99.90
59660;DHT22;45534;52.690;6.268;2023-07-16T02:21:43;17.20;99.90
59660;DHT22;45534;52.690;6.268;2023-07-16T02:24:09;17.20;99.90
59660;DHT22;45534;52.690;6.268;2023-07-16T02:26:34;17.10;99.90
59660;DHT22;45534;52.690;6.268;2023-07-16T02:29:00;17.10;99.90
59660;DHT22;45534;52.690;6.268;2023-07-16T02:31:26;17.00;99.90
59660;DHT22;45534;52.690;6.268;2023-07-16T02:33:51;16.90;99.90
59660;DHT22;45534;52.690;6.268;2023-07-16T02:36:17;16.90;99.90
59660;DHT22;45534;52.690;6.268;2023-07-16T02:38:43;16.90;99.90
59660;DHT22;45534;52.690;6.268;2023-07-16T02:41:08;16.80;99.90
59660;DHT22;45534;52.690;6.268;2023-07-16T02:43:34;16.90;99.90
59660;DHT22;45534;52.690;6.268;2023-07-16T02:46:00;16.90;99.90
59660;DHT22;45534;52.690;6.268;2023-07-16T02:48:26;16.80;99.90
59660;DHT22;45534;52.690;6.268;2023-07-16T02:50:51;16.80;99.90
59660;DHT22;45534;52.690;6.268;2023-07-16T02:53:17;16.80;99.90
59660;DHT22;45534;52.690;6.268;2023-07-16T02:55:45;16.70;99.90
59660;DHT22;45534;52.690;6.268;2023-07-16T02:58:11;16.70;99.90
59660;DHT22;45534;52.690;6.268;2023-07-16T03:00:37;16.70;99.90
59660;DHT22;45534;52.690;6.268;2023-07-16T03:03:03;16.70;99.90
59660;DHT22;45534;52.690;6.268;2023-07-16T03:05:29;16.60;99.90
59660;DHT22;45534;52.690;6.268;2023-07-16T03:07:58;16.60;99.90
59660;DHT22;45534;52.690;6.268;2023-07-16T03:10:24;16.50;99.90
59660;DHT22;45534;52.690;6.268;2023-07-16T03:12:52;16.50;99.90
59660;DHT22;45534;52.690;6.268;2023-07-16T03:15:18;16.50;99.90
59660;DHT22;45534;52.690;6.268;2023-07-16T03:17:43;16.40;99.90
59660;DHT22;45534;52.690;6.268;2023-07-16T03:20:09;16.50;99.90
59660;DHT22;45534;52.690;6.268;2023-07-16T03:22:35;16.40;99.90
59660;DHT22;45534;52.690;6.268;2023-07-16T03:25:01;16.50;99.90
59660;DHT22;45534;52.690;6.268;2023-07-16T03:27:28;16.50;99.90
59660;DHT22;45534;52.690;6.268;2023-07-16T03:29:54;16.50;99.90
59660;DHT22;45534;52.690;6.268;2023-07-16T03:32:20;16.50;99.90
59660;DHT22;45534;52.690;6.268;2023-07-16T03:34:45;16.50;99.90
59660;DHT22;45534;52.690;6.268;2023-07-16T03:37:17;16.40;99.90
59660;DHT22;45534;52.690;6.268;2023-07-16T03:39:42;16.40;99.90
59660;DHT22;45534;52.690;6.268;2023-07-16T03:42:08;16.40;99.90
59660;DHT22;45534;52.690;6.268;2023-07-16T03:44:34;16.40;99.90
59660;DHT22;45534;52.690;6.268;2023-07-16T03:46:59;16.40;99.90
59660;DHT22;45534;52.690;6.268;2023-07-16T03:49:25;16.40;99.90
59660;DHT22;45534;52.690;6.268;2023-07-16T03:51:51;16.40;99.90
59660;DHT22;45534;52.690;6.268;2023-07-16T03:54:16;16.30;99.90
59660;DHT22;45534;52.690;6.268;2023-07-16T03:56:42;16.30;99.90
59660;DHT22;45534;52.690;6.268;2023-07-16T03:59:08;16.40;99.90
59660;DHT22;45534;52.690;6.268;2023-07-16T04:01:33;16.40;99.90
59660;DHT22;45534;52.690;6.268;2023-07-16T04:03:59;16.40;99.90
59660;DHT22;45534;52.690;6.268;2023-07-16T04:06:25;16.40;99.90
59660;DHT22;45534;52.690;6.268;2023-07-16T04:08:50;16.40;99.90
59660;DHT22;45534;52.690;6.268;2023-07-16T04:11:16;16.40;99.90
59660;DHT22;45534;52.690;6.268;2023-07-16T04:13:42;16.40;99.90
59660;DHT22;45534;52.690;6.268;2023-07-16T04:16:07;16.40;99.90
59660;DHT22;45534;52.690;6.268;2023-07-16T04:18:33;16.30;99.90
59660;DHT22;45534;52.690;6.268;2023-07-16T04:20:59;16.30;99.90
59660;DHT22;45534;52.690;6.268;2023-07-16T04:23:25;16.30;99.90
59660;DHT22;45534;52.690;6.268;2023-07-16T04:25:54;16.20;99.90
59660;DHT22;45534;52.690;6.268;2023-07-16T04:28:20;16.20;99.90
59660;DHT22;45534;52.690;6.268;2023-07-16T04:30:46;16.20;99.90
59660;DHT22;45534;52.690;6.268;2023-07-16T04:33:12;16.20;99.90
59660;DHT22;45534;52.690;6.268;2023-07-16T04:35:37;16.20;99.90
59660;DHT22;45534;52.690;6.268;2023-07-16T04:38:03;16.20;99.90
59660;DHT22;45534;52.690;6.268;2023-07-16T04:40:29;16.20;99.90
59660;DHT22;45534;52.690;6.268;2023-07-16T04:42:55;16.20;99.90
59660;DHT22;45534;52.690;6.268;2023-07-16T04:45:21;16.20;99.90
59660;DHT22;45534;52.690;6.268;2023-07-16T04:47:46;16.20;99.90
59660;DHT22;45534;52.690;6.268;2023-07-16T04:50:12;16.30;99.90
59660;DHT22;45534;52.690;6.268;2023-07-16T04:52:38;16.30;99.90
59660;DHT22;45534;52.690;6.268;2023-07-16T04:55:04;16.30;99.90
59660;DHT22;45534;52.690;6.268;2023-07-16T04:57:30;16.30;99.90
59660;DHT22;45534;52.690;6.268;2023-07-16T04:59:55;16.30;99.90
59660;DHT22;45534;52.690;6.268;2023-07-16T05:02:21;16.30;99.90
59660;DHT22;45534;52.690;6.268;2023-07-16T05:04:47;16.40;99.90
59660;DHT22;45534;52.690;6.268;2023-07-16T05:07:15;16.40;99.90
59660;DHT22;45534;52.690;6.268;2023-07-16T05:09:42;16.40;99.90
59660;DHT22;45534;52.690;6.268;2023-07-16T05:12:11;16.40;99.90
59660;DHT22;45534;52.690;6.268;2023-07-16T05:14:45;16.40;99.90
59660;DHT22;45534;52.690;6.268;2023-07-16T05:17:11;16.50;99.90
59660;DHT22;45534;52.690;6.268;2023-07-16T05:19:37;16.50;99.90
59660;DHT22;45534;52.690;6.268;2023-07-16T05:22:03;16.60;99.90
59660;DHT22;45534;52.690;6.268;2023-07-16T05:24:29;16.70;99.90
59660;DHT22;45534;52.690;6.268;2023-07-16T05:26:55;16.70;99.90
59660;DHT22;45534;52.690;6.268;2023-07-16T05:29:21;16.80;99.90
59660;DHT22;45534;52.690;6.268;2023-07-16T05:31:46;16.90;99.90
59660;DHT22;45534;52.690;6.268;2023-07-16T05:34:12;16.90;99.90
59660;DHT22;45534;52.690;6.268;2023-07-16T05:36:40;16.90;99.90
59660;DHT22;45534;52.690;6.268;2023-07-16T05:39:06;17.00;99.90
59660;DHT22;45534;52.690;6.268;2023-07-16T05:41:34;17.00;99.90
59660;DHT22;45534;52.690;6.268;2023-07-16T05:43:59;17.10;99.90
59660;DHT22;45534;52.690;6.268;2023-07-16T05:46:25;17.10;99.90
59660;DHT22;45534;52.690;6.268;2023-07-16T05:48:51;17.10;99.90
59660;DHT22;45534;52.690;6.268;2023-07-16T05:51:17;17.10;99.90
59660;DHT22;45534;52.690;6.268;2023-07-16T05:53:42;17.20;99.90
59660;DHT22;45534;52.690;6.268;2023-07-16T05:56:08;17.20;99.90
59660;DHT22;45534;52.690;6.268;2023-07-16T05:58:34;17.20;99.90
59660;DHT22;45534;52.690;6.268;2023-07-16T06:00:59;17.20;99.90
59660;DHT22;45534;52.690;6.268;2023-07-16T06:03:25;17.30;99.90
59660;DHT22;45534;52.690;6.268;2023-07-16T06:05:51;17.30;99.90
59660;DHT22;45534;52.690;6.268;2023-07-16T06:08:19;17.30;99.90
59660;DHT22;45534;52.690;6.268;2023-07-16T06:10:45;17.40;99.90
59660;DHT22;45534;52.690;6.268;2023-07-16T06:13:11;17.40;99.90
59660;DHT22;45534;52.690;6.268;2023-07-16T06:15:37;17.50;99.90
59660;DHT22;45534;52.690;6.268;2023-07-16T06:18:02;17.50;99.90
59660;DHT22;45534;52.690;6.268;2023-07-16T06:20:28;17.50;99.90
59660;DHT22;45534;52.690;6.268;2023-07-16T06:22:54;17.60;99.90
59660;DHT22;45534;52.690;6.268;2023-07-16T06:25:20;17.60;99.90
59660;DHT22;45534;52.690;6.268;2023-07-16T06:27:45;17.70;99.90
59660;DHT22;45534;52.690;6.268;2023-07-16T06:30:11;17.70;99.90
59660;DHT22;45534;52.690;6.268;2023-07-16T06:32:37;17.80;99.90
59660;DHT22;45534;52.690;6.268;2023-07-16T06:35:02;17.90;99.90
59660;DHT22;45534;52.690;6.268;2023-07-16T06:37:28;18.00;99.90
59660;DHT22;45534;52.690;6.268;2023-07-16T06:39:54;18.20;99.90
59660;DHT22;45534;52.690;6.268;2023-07-16T06:42:19;18.20;99.90
59660;DHT22;45534;52.690;6.268;2023-07-16T06:44:45;18.10;99.90
59660;DHT22;45534;52.690;6.268;2023-07-16T06:47:11;18.10;99.90
59660;DHT22;45534;52.690;6.268;2023-07-16T06:49:37;18.20;99.90
59660;DHT22;45534;52.690;6.268;2023-07-16T06:52:02;18.20;99.90
59660;DHT22;45534;52.690;6.268;2023-07-16T06:54:28;18.30;99.90
59660;DHT22;45534;52.690;6.268;2023-07-16T06:56:54;18.40;99.90
59660;DHT22;45534;52.690;6.268;2023-07-16T06:59:19;18.40;99.90
59660;DHT22;45534;52.690;6.268;2023-07-16T07:01:45;18.50;99.90
59660;DHT22;45534;52.690;6.268;2023-07-16T07:04:11;18.50;99.90
59660;DHT22;45534;52.690;6.268;2023-07-16T07:06:37;18.60;99.90
59660;DHT22;45534;52.690;6.268;2023-07-16T07:09:03;18.70;99.90
59660;DHT22;45534;52.690;6.268;2023-07-16T07:11:28;18.70;99.90
59660;DHT22;45534;52.690;6.268;2023-07-16T07:13:54;18.80;99.90
59660;DHT22;45534;52.690;6.268;2023-07-16T07:16:22;18.80;99.90
59660;DHT22;45534;52.690;6.268;2023-07-16T07:18:47;18.90;99.90
59660;DHT22;45534;52.690;6.268;2023-07-16T07:21:13;18.90;99.90
59660;DHT22;45534;52.690;6.268;2023-07-16T07:23:39;19.00;99.90
59660;DHT22;45534;52.690;6.268;2023-07-16T07:26:05;18.90;99.90
59660;DHT22;45534;52.690;6.268;2023-07-16T07:28:31;19.00;99.90
59660;DHT22;45534;52.690;6.268;2023-07-16T07:30:57;19.10;99.90
59660;DHT22;45534;52.690;6.268;2023-07-16T07:33:22;19.20;99.90
59660;DHT22;45534;52.690;6.268;2023-07-16T07:35:48;19.30;99.90
59660;DHT22;45534;52.690;6.268;2023-07-16T07:38:14;19.30;99.90
59660;DHT22;45534;52.690;6.268;2023-07-16T07:40:42;19.40;99.90
59660;DHT22;45534;52.690;6.268;2023-07-16T07:43:08;19.50;99.90
59660;DHT22;45534;52.690;6.268;2023-07-16T07:45:34;19.60;99.90
59660;DHT22;45534;52.690;6.268;2023-07-16T07:48:00;19.70;99.90
59660;DHT22;45534;52.690;6.268;2023-07-16T07:50:25;19.80;99.90
59660;DHT22;45534;52.690;6.268;2023-07-16T07:52:51;19.90;99.90
59660;DHT22;45534;52.690;6.268;2023-07-16T07:55:16;19.90;99.90
59660;DHT22;45534;52.690;6.268;2023-07-16T07:57:42;19.80;99.90
59660;DHT22;45534;52.690;6.268;2023-07-16T08:00:08;19.80;99.90
59660;DHT22;45534;52.690;6.268;2023-07-16T08:02:37;19.80;99.90
59660;DHT22;45534;52.690;6.268;2023-07-16T08:05:03;20.00;99.90
59660;DHT22;45534;52.690;6.268;2023-07-16T08:07:29;20.10;99.90
59660;DHT22;45534;52.690;6.268;2023-07-16T08:09:55;20.10;99.90
59660;DHT22;45534;52.690;6.268;2023-07-16T08:12:20;20.00;99.90
59660;DHT22;45534;52.690;6.268;2023-07-16T08:14:47;20.00;99.90
59660;DHT22;45534;52.690;6.268;2023-07-16T08:17:12;19.90;99.90
59660;DHT22;45534;52.690;6.268;2023-07-16T08:19:38;19.90;99.90
59660;DHT22;45534;52.690;6.268;2023-07-16T08:22:04;19.90;99.90
59660;DHT22;45534;52.690;6.268;2023-07-16T08:24:30;19.80;99.90
59660;DHT22;45534;52.690;6.268;2023-07-16T08:26:56;19.80;99.90
59660;DHT22;45534;52.690;6.268;2023-07-16T08:29:21;19.70;99.90
59660;DHT22;45534;52.690;6.268;2023-07-16T08:31:47;19.80;99.90
59660;DHT22;45534;52.690;6.268;2023-07-16T08:34:13;19.90;99.90
59660;DHT22;45534;52.690;6.268;2023-07-16T08:36:38;19.90;99.90
59660;DHT22;45534;52.690;6.268;2023-07-16T08:39:04;19.80;99.90
59660;DHT22;45534;52.690;6.268;2023-07-16T08:41:31;19.80;99.90
59660;DHT22;45534;52.690;6.268;2023-07-16T08:43:57;19.90;99.90
59660;DHT22;45534;52.690;6.268;2023-07-16T08:46:23;20.00;99.90
59660;DHT22;45534;52.690;6.268;2023-07-16T08:48:49;20.00;99.90
59660;DHT22;45534;52.690;6.268;2023-07-16T08:51:16;20.00;99.90
59660;DHT22;45534;52.690;6.268;2023-07-16T08:53:42;20.10;99.90
59660;DHT22;45534;52.690;6.268;2023-07-16T08:56:08;20.30;99.90
59660;DHT22;45534;52.690;6.268;2023-07-16T08:58:35;20.40;99.90
59660;DHT22;45534;52.690;6.268;2023-07-16T09:01:03;20.50;99.90
59660;DHT22;45534;52.690;6.268;2023-07-16T09:03:28;20.50;99.90
59660;DHT22;45534;52.690;6.268;2023-07-16T09:05:55;20.50;99.90
59660;DHT22;45534;52.690;6.268;2023-07-16T09:08:20;20.50;99.90
59660;DHT22;45534;52.690;6.268;2023-07-16T09:10:54;20.40;99.90
59660;DHT22;45534;52.690;6.268;2023-07-16T09:13:20;20.30;99.90
59660;DHT22;45534;52.690;6.268;2023-07-16T09:15:51;20.20;99.90
59660;DHT22;45534;52.690;6.268;2023-07-16T09:18:26;20.20;99.90
59660;DHT22;45534;52.690;6.268;2023-07-16T09:20:56;20.20;99.90
59660;DHT22;45534;52.690;6.268;2023-07-16T09:23:24;20.20;99.90
59660;DHT22;45534;52.690;6.268;2023-07-16T09:25:51;20.20;99.90
59660;DHT22;45534;52.690;6.268;2023-07-16T09:28:18;20.20;99.90
59660;DHT22;45534;52.690;6.268;2023-07-16T09:30:45;20.30;99.90
59660;DHT22;45534;52.690;6.268;2023-07-16T09:33:15;20.50;99.90
59660;DHT22;45534;52.690;6.268;2023-07-16T09:35:41;20.60;99.90
59660;DHT22;45534;52.690;6.268;2023-07-16T09:38:10;20.80;99.90
59660;DHT22;45534;52.690;6.268;2023-07-16T09:40:37;20.90;99.90
59660;DHT22;45534;52.690;6.268;2023-07-16T09:43:03;20.80;99.90
59660;DHT22;45534;52.690;6.268;2023-07-16T09:45:30;20.70;99.90
59660;DHT22;45534;52.690;6.268;2023-07-16T09:47:56;20.70;99.90
59660;DHT22;45534;52.690;6.268;2023-07-16T09:50:27;20.70;99.90
59660;DHT22;45534;52.690;6.268;2023-07-16T09:52:54;20.60;99.90
59660;DHT22;45534;52.690;6.268;2023-07-16T09:55:22;20.60;99.90
59660;DHT22;45534;52.690;6.268;2023-07-16T09:57:49;20.60;99.90
59660;DHT22;45534;52.690;6.268;2023-07-16T10:00:16;20.50;99.90
59660;DHT22;45534;52.690;6.268;2023-07-16T10:02:43;20.30;99.90
59660;DHT22;45534;52.690;6.268;2023-07-16T10:05:17;20.20;99.90
59660;DHT22;45534;52.690;6.268;2023-07-16T10:07:50;20.20;99.90
59660;DHT22;45534;52.690;6.268;2023-07-16T10:10:16;20.10;99.90
59660;DHT22;45534;52.690;6.268;2023-07-16T10:12:54;20.00;99.90
59660;DHT22;45534;52.690;6.268;2023-07-16T10:15:30;20.00;99.90
59660;DHT22;45534;52.690;6.268;2023-07-16T10:17:57;19.90;99.90
59660;DHT22;45534;52.690;6.268;2023-07-16T10:20:33;19.90;99.90
59660;DHT22;45534;52.690;6.268;2023-07-16T10:23:09;20.10;99.90
59660;DHT22;45534;52.690;6.268;2023-07-16T10:25:37;20.20;99.90
59660;DHT22;45534;52.690;6.268;2023-07-16T10:28:02;20.40;99.90
59660;DHT22;45534;52.690;6.268;2023-07-16T10:30:29;20.50;99.90
59660;DHT22;45534;52.690;6.268;2023-07-16T10:32:55;20.60;99.90
59660;DHT22;45534;52.690;6.268;2023-07-16T10:35:21;20.80;99.90
59660;DHT22;45534;52.690;6.268;2023-07-16T10:37:47;20.90;99.90
59660;DHT22;45534;52.690;6.268;2023-07-16T10:40:15;21.00;99.90
59660;DHT22;45534;52.690;6.268;2023-07-16T10:42:43;21.10;99.90
59660;DHT22;45534;52.690;6.268;2023-07-16T10:45:15;21.30;99.90
59660;DHT22;45534;52.690;6.268;2023-07-16T10:47:54;21.40;99.90
59660;DHT22;45534;52.690;6.268;2023-07-16T10:50:21;21.60;99.90
59660;DHT22;45534;52.690;6.268;2023-07-16T10:52:57;21.60;99.90
59660;DHT22;45534;52.690;6.268;2023-07-16T10:55:23;21.60;99.90
59660;DHT22;45534;52.690;6.268;2023-07-16T10:57:51;21.50;99.90
59660;DHT22;45534;52.690;6.268;2023-07-16T11:00:17;21.40;99.90
59660;DHT22;45534;52.690;6.268;2023-07-16T11:02:44;21.30;99.90
59660;DHT22;45534;52.690;6.268;2023-07-16T11:05:11;21.30;99.90
59660;DHT22;45534;52.690;6.268;2023-07-16T11:07:37;21.40;99.90
59660;DHT22;45534;52.690;6.268;2023-07-16T11:10:03;21.50;99.90
59660;DHT22;45534;52.690;6.268;2023-07-16T11:12:29;21.50;99.90
59660;DHT22;45534;52.690;6.268;2023-07-16T11:14:55;21.50;99.90
59660;DHT22;45534;52.690;6.268;2023-07-16T11:17:24;21.50;99.90
59660;DHT22;45534;52.690;6.268;2023-07-16T11:19:52;21.40;99.90
59660;DHT22;45534;52.690;6.268;2023-07-16T11:22:18;21.20;99.90
59660;DHT22;45534;52.690;6.268;2023-07-16T11:24:44;21.00;99.90
59660;DHT22;45534;52.690;6.268;2023-07-16T11:27:14;20.90;99.90
59660;DHT22;45534;52.690;6.268;2023-07-16T11:29:45;20.70;99.90
59660;DHT22;45534;52.690;6.268;2023-07-16T11:32:11;20.60;99.90
59660;DHT22;45534;52.690;6.268;2023-07-16T11:34:37;20.60;99.90
59660;DHT22;45534;52.690;6.268;2023-07-16T11:37:12;20.50;99.90
59660;DHT22;45534;52.690;6.268;2023-07-16T11:39:38;20.60;99.90
59660;DHT22;45534;52.690;6.268;2023-07-16T11:42:04;20.80;99.90
59660;DHT22;45534;52.690;6.268;2023-07-16T11:44:34;21.00;99.90
59660;DHT22;45534;52.690;6.268;2023-07-16T11:47:00;21.20;99.90
59660;DHT22;45534;52.690;6.268;2023-07-16T11:49:26;21.40;99.90
59660;DHT22;45534;52.690;6.268;2023-07-16T11:51:52;21.60;99.90
59660;DHT22;45534;52.690;6.268;2023-07-16T11:54:17;21.80;99.90
59660;DHT22;45534;52.690;6.268;2023-07-16T11:56:43;22.00;99.90
59660;DHT22;45534;52.690;6.268;2023-07-16T11:59:09;22.20;99.90
59660;DHT22;45534;52.690;6.268;2023-07-16T12:01:34;21.90;99.90
59660;DHT22;45534;52.690;6.268;2023-07-16T12:04:01;21.60;99.90
59660;DHT22;45534;52.690;6.268;2023-07-16T12:06:27;21.40;99.90
59660;DHT22;45534;52.690;6.268;2023-07-16T12:08:52;21.20;99.90
59660;DHT22;45534;52.690;6.268;2023-07-16T12:11:21;21.00;99.90
59660;DHT22;45534;52.690;6.268;2023-07-16T12:13:47;20.90;99.90
59660;DHT22;45534;52.690;6.268;2023-07-16T12:16:13;20.80;99.90
59660;DHT22;45534;52.690;6.268;2023-07-16T12:18:39;20.80;99.90
59660;DHT22;45534;52.690;6.268;2023-07-16T12:21:04;21.00;99.90
59660;DHT22;45534;52.690;6.268;2023-07-16T12:23:31;21.20;99.90
59660;DHT22;45534;52.690;6.268;2023-07-16T12:25:57;21.40;99.90
59660;DHT22;45534;52.690;6.268;2023-07-16T12:28:22;21.60;99.90
59660;DHT22;45534;52.690;6.268;2023-07-16T12:30:48;21.60;99.90
59660;DHT22;45534;52.690;6.268;2023-07-16T12:33:14;21.50;99.90
59660;DHT22;45534;52.690;6.268;2023-07-16T12:35:39;21.50;99.90
59660;DHT22;45534;52.690;6.268;2023-07-16T12:38:05;21.60;99.90
59660;DHT22;45534;52.690;6.268;2023-07-16T12:40:31;22.00;99.90
59660;DHT22;45534;52.690;6.268;2023-07-16T12:42:57;22.40;99.90
59660;DHT22;45534;52.690;6.268;2023-07-16T12:45:22;22.40;99.90
59660;DHT22;45534;52.690;6.268;2023-07-16T12:47:48;22.30;99.90
59660;DHT22;45534;52.690;6.268;2023-07-16T12:50:14;22.10;99.90
59660;DHT22;45534;52.690;6.268;2023-07-16T12:52:39;22.00;99.90
59660;DHT22;45534;52.690;6.268;2023-07-16T12:55:05;21.90;99.90
59660;DHT22;45534;52.690;6.268;2023-07-16T12:57:31;21.80;99.90
59660;DHT22;45534;52.690;6.268;2023-07-16T12:59:57;21.70;99.90
59660;DHT22;45534;52.690;6.268;2023-07-16T13:02:23;21.70;99.90
59660;DHT22;45534;52.690;6.268;2023-07-16T13:04:48;21.70;99.90
59660;DHT22;45534;52.690;6.268;2023-07-16T13:07:14;21.80;99.90
59660;DHT22;45534;52.690;6.268;2023-07-16T13:09:43;22.20;99.90
59660;DHT22;45534;52.690;6.268;2023-07-16T13:12:08;22.70;99.90
59660;DHT22;45534;52.690;6.268;2023-07-16T13:14:34;23.10;99.90
59660;DHT22;45534;52.690;6.268;2023-07-16T13:17:00;23.30;99.90
59660;DHT22;45534;52.690;6.268;2023-07-16T13:19:26;23.40;99.70
59660;DHT22;45534;52.690;6.268;2023-07-16T13:21:52;23.20;98.50
59660;DHT22;45534;52.690;6.268;2023-07-16T13:24:18;23.00;98.70
59660;DHT22;45534;52.690;6.268;2023-07-16T13:26:43;22.70;99.80
59660;DHT22;45534;52.690;6.268;2023-07-16T13:29:09;22.50;99.90
59660;DHT22;45534;52.690;6.268;2023-07-16T13:31:34;22.50;99.90
59660;DHT22;45534;52.690;6.268;2023-07-16T13:34:00;22.50;99.20
59660;DHT22;45534;52.690;6.268;2023-07-16T13:36:29;22.40;98.30
59660;DHT22;45534;52.690;6.268;2023-07-16T13:38:55;22.60;99.50
59660;DHT22;45534;52.690;6.268;2023-07-16T13:41:21;22.90;98.50
59660;DHT22;45534;52.690;6.268;2023-07-16T13:43:46;22.90;98.00
59660;DHT22;45534;52.690;6.268;2023-07-16T13:46:12;22.80;97.00
59660;DHT22;45534;52.690;6.268;2023-07-16T13:48:37;22.70;97.00
59660;DHT22;45534;52.690;6.268;2023-07-16T13:51:04;22.70;97.20
59660;DHT22;45534;52.690;6.268;2023-07-16T13:53:30;22.50;97.30
59660;DHT22;45534;52.690;6.268;2023-07-16T13:55:56;22.50;97.40
59660;DHT22;45534;52.690;6.268;2023-07-16T13:58:21;22.40;97.30
59660;DHT22;45534;52.690;6.268;2023-07-16T14:00:47;22.20;97.70
59660;DHT22;45534;52.690;6.268;2023-07-16T14:03:13;22.10;97.60
59660;DHT22;45534;52.690;6.268;2023-07-16T14:05:38;22.30;97.70
59660;DHT22;45534;52.690;6.268;2023-07-16T14:08:06;22.50;97.50
59660;DHT22;45534;52.690;6.268;2023-07-16T14:10:31;23.00;98.60
59660;DHT22;45534;52.690;6.268;2023-07-16T14:12:57;23.60;97.90
59660;DHT22;45534;52.690;6.268;2023-07-16T14:15:23;24.10;96.90
59660;DHT22;45534;52.690;6.268;2023-07-16T14:17:49;24.30;95.80
59660;DHT22;45534;52.690;6.268;2023-07-16T14:20:14;24.10;94.80
59660;DHT22;45534;52.690;6.268;2023-07-16T14:22:40;23.80;95.20
59660;DHT22;45534;52.690;6.268;2023-07-16T14:25:06;23.60;95.10
59660;DHT22;45534;52.690;6.268;2023-07-16T14:27:32;23.30;95.30
59660;DHT22;45534;52.690;6.268;2023-07-16T14:29:58;23.00;96.10
59660;DHT22;45534;52.690;6.268;2023-07-16T14:32:24;22.90;96.70
59660;DHT22;45534;52.690;6.268;2023-07-16T14:34:50;22.70;97.20
59660;DHT22;45534;52.690;6.268;2023-07-16T14:37:15;22.50;97.80
59660;DHT22;45534;52.690;6.268;2023-07-16T14:39:41;22.50;98.70
59660;DHT22;45534;52.690;6.268;2023-07-16T14:42:07;22.50;99.70
59660;DHT22;45534;52.690;6.268;2023-07-16T14:44:33;22.50;99.90
59660;DHT22;45534;52.690;6.268;2023-07-16T14:46:58;22.60;99.90
59660;DHT22;45534;52.690;6.268;2023-07-16T14:49:24;22.70;99.90
59660;DHT22;45534;52.690;6.268;2023-07-16T14:51:49;22.70;99.90
59660;DHT22;45534;52.690;6.268;2023-07-16T14:54:15;22.70;99.90
59660;DHT22;45534;52.690;6.268;2023-07-16T14:56:41;22.60;99.90
59660;DHT22;45534;52.690;6.268;2023-07-16T14:59:06;22.50;99.90
59660;DHT22;45534;52.690;6.268;2023-07-16T15:01:32;22.30;99.90
59660;DHT22;45534;52.690;6.268;2023-07-16T15:03:58;22.10;99.90
59660;DHT22;45534;52.690;6.268;2023-07-16T15:06:26;22.00;99.90
59660;DHT22;45534;52.690;6.268;2023-07-16T15:08:53;22.10;99.90
59660;DHT22;45534;52.690;6.268;2023-07-16T15:11:19;22.00;99.90
59660;DHT22;45534;52.690;6.268;2023-07-16T15:13:44;22.00;99.90
59660;DHT22;45534;52.690;6.268;2023-07-16T15:16:10;22.00;99.90
59660;DHT22;45534;52.690;6.268;2023-07-16T15:18:39;21.90;99.90
59660;DHT22;45534;52.690;6.268;2023-07-16T15:21:04;21.80;99.90
59660;DHT22;45534;52.690;6.268;2023-07-16T15:23:30;21.80;99.90
59660;DHT22;45534;52.690;6.268;2023-07-16T15:26:05;21.90;99.90
59660;DHT22;45534;52.690;6.268;2023-07-16T15:28:32;22.10;99.90
59660;DHT22;45534;52.690;6.268;2023-07-16T15:31:02;22.30;99.90